sensor_id;sensor_type;location;lat;lon;timestamp;P1;durP1;ratioP1;P2;durP2;ratioP2
13411;SDS011;67102;51.666;6.880;2023-02-28T00:00:17;2.60;;;2.30;;
13411;SDS011;67102;51.666;6.880;2023-02-28T00:02:44;2.40;;;2.10;;
13411;SDS011;67102;51.666;6.880;2023-02-28T00:05:12;4.33;;;2.50;;
13411;SDS011;67102;51.666;6.880;2023-02-28T00:07:39;3.57;;;2.70;;
13411;SDS011;67102;51.666;6.880;2023-02-28T00:10:07;3.40;;;2.50;;
13411;SDS011;67102;51.666;6.880;2023-02-28T00:12:37;5.57;;;3.10;;
13411;SDS011;67102;51.666;6.880;2023-02-28T00:15:05;3.60;;;2.70;;
13411;SDS011;67102;51.666;6.880;2023-02-28T00:17:32;3.60;;;2.57;;
13411;SDS011;67102;51.666;6.880;2023-02-28T00:19:58;4.37;;;3.20;;
13411;SDS011;67102;51.666;6.880;2023-02-28T00:22:24;3.73;;;2.70;;
13411;SDS011;67102;51.666;6.880;2023-02-28T00:24:50;4.13;;;2.70;;
13411;SDS011;67102;51.666;6.880;2023-02-28T00:27:16;3.40;;;3.00;;
13411;SDS011;67102;51.666;6.880;2023-02-28T00:29:43;4.03;;;2.83;;
13411;SDS011;67102;51.666;6.880;2023-02-28T00:32:12;3.00;;;2.70;;
13411;SDS011;67102;51.666;6.880;2023-02-28T00:34:38;4.50;;;3.00;;
13411;SDS011;67102;51.666;6.880;2023-02-28T00:37:04;3.50;;;2.73;;
13411;SDS011;67102;51.666;6.880;2023-02-28T00:39:31;3.07;;;2.60;;
13411;SDS011;67102;51.666;6.880;2023-02-28T00:41:58;3.87;;;3.00;;
13411;SDS011;67102;51.666;6.880;2023-02-28T00:44:24;3.57;;;2.63;;
13411;SDS011;67102;51.666;6.880;2023-02-28T00:46:51;3.77;;;2.80;;
13411;SDS011;67102;51.666;6.880;2023-02-28T00:49:17;4.17;;;3.20;;
13411;SDS011;67102;51.666;6.880;2023-02-28T00:51:44;4.20;;;2.40;;
13411;SDS011;67102;51.666;6.880;2023-02-28T00:54:09;3.03;;;2.57;;
13411;SDS011;67102;51.666;6.880;2023-02-28T00:56:35;2.90;;;2.50;;
13411;SDS011;67102;51.666;6.880;2023-02-28T00:59:01;5.63;;;2.57;;
13411;SDS011;67102;51.666;6.880;2023-02-28T01:01:27;3.20;;;2.50;;
13411;SDS011;67102;51.666;6.880;2023-02-28T01:03:55;4.30;;;3.07;;
13411;SDS011;67102;51.666;6.880;2023-02-28T01:06:21;3.03;;;2.60;;
13411;SDS011;67102;51.666;6.880;2023-02-28T01:08:47;3.07;;;2.53;;
13411;SDS011;67102;51.666;6.880;2023-02-28T01:11:14;3.03;;;2.53;;
13411;SDS011;67102;51.666;6.880;2023-02-28T01:13:42;3.67;;;2.80;;
13411;SDS011;67102;51.666;6.880;2023-02-28T01:16:10;2.73;;;2.47;;
13411;SDS011;67102;51.666;6.880;2023-02-28T01:18:36;3.70;;;2.73;;
13411;SDS011;67102;51.666;6.880;2023-02-28T01:21:04;4.13;;;2.70;;
13411;SDS011;67102;51.666;6.880;2023-02-28T01:23:31;3.03;;;2.73;;
13411;SDS011;67102;51.666;6.880;2023-02-28T01:25:57;3.77;;;2.70;;
13411;SDS011;67102;51.666;6.880;2023-02-28T01:28:29;3.63;;;2.40;;
13411;SDS011;67102;51.666;6.880;2023-02-28T01:30:55;3.50;;;3.00;;
13411;SDS011;67102;51.666;6.880;2023-02-28T01:33:20;3.13;;;2.50;;
13411;SDS011;67102;51.666;6.880;2023-02-28T01:35:46;4.00;;;2.77;;
13411;SDS011;67102;51.666;6.880;2023-02-28T01:38:14;2.60;;;2.40;;
13411;SDS011;67102;51.666;6.880;2023-02-28T01:40:40;3.53;;;2.80;;
13411;SDS011;67102;51.666;6.880;2023-02-28T01:43:09;3.70;;;2.60;;
13411;SDS011;67102;51.666;6.880;2023-02-28T01:45:47;4.03;;;3.03;;
13411;SDS011;67102;51.666;6.880;2023-02-28T01:48:13;3.47;;;2.20;;
13411;SDS011;67102;51.666;6.880;2023-02-28T01:50:40;2.97;;;2.17;;
13411;SDS011;67102;51.666;6.880;2023-02-28T01:53:10;3.57;;;2.93;;
13411;SDS011;67102;51.666;6.880;2023-02-28T01:55:42;4.23;;;2.60;;
13411;SDS011;67102;51.666;6.880;2023-02-28T01:58:13;3.20;;;2.30;;
13411;SDS011;67102;51.666;6.880;2023-02-28T02:00:40;2.57;;;2.00;;
13411;SDS011;67102;51.666;6.880;2023-02-28T02:03:06;3.37;;;2.50;;
13411;SDS011;67102;51.666;6.880;2023-02-28T02:05:36;3.03;;;2.73;;
13411;SDS011;67102;51.666;6.880;2023-02-28T02:08:04;3.13;;;2.37;;
13411;SDS011;67102;51.666;6.880;2023-02-28T02:10:36;2.80;;;2.50;;
13411;SDS011;67102;51.666;6.880;2023-02-28T02:13:10;3.43;;;2.43;;
13411;SDS011;67102;51.666;6.880;2023-02-28T02:15:52;2.77;;;2.30;;
13411;SDS011;67102;51.666;6.880;2023-02-28T02:18:29;4.50;;;2.10;;
13411;SDS011;67102;51.666;6.880;2023-02-28T02:21:16;2.40;;;2.20;;
13411;SDS011;67102;51.666;6.880;2023-02-28T02:24:18;2.27;;;2.07;;
13411;SDS011;67102;51.666;6.880;2023-02-28T02:27:07;2.40;;;1.97;;
13411;SDS011;67102;51.666;6.880;2023-02-28T02:32:57;2.37;;;2.00;;
13411;SDS011;67102;51.666;6.880;2023-02-28T02:35:41;2.83;;;2.10;;
13411;SDS011;67102;51.666;6.880;2023-02-28T02:38:13;3.33;;;2.10;;
13411;SDS011;67102;51.666;6.880;2023-02-28T02:40:54;2.83;;;1.97;;
13411;SDS011;67102;51.666;6.880;2023-02-28T02:43:29;3.60;;;2.03;;
13411;SDS011;67102;51.666;6.880;2023-02-28T02:46:01;2.13;;;1.93;;
13411;SDS011;67102;51.666;6.880;2023-02-28T02:48:34;2.03;;;1.47;;
13411;SDS011;67102;51.666;6.880;2023-02-28T02:51:03;1.80;;;1.63;;
13411;SDS011;67102;51.666;6.880;2023-02-28T02:53:36;1.80;;;1.70;;
13411;SDS011;67102;51.666;6.880;2023-02-28T02:56:11;2.10;;;1.90;;
13411;SDS011;67102;51.666;6.880;2023-02-28T02:58:40;2.33;;;1.80;;
13411;SDS011;67102;51.666;6.880;2023-02-28T03:01:10;1.90;;;1.70;;
13411;SDS011;67102;51.666;6.880;2023-02-28T03:03:41;2.07;;;1.90;;
13411;SDS011;67102;51.666;6.880;2023-02-28T03:06:09;1.80;;;1.70;;
13411;SDS011;67102;51.666;6.880;2023-02-28T03:08:36;1.97;;;1.77;;
13411;SDS011;67102;51.666;6.880;2023-02-28T03:11:04;2.70;;;2.13;;
13411;SDS011;67102;51.666;6.880;2023-02-28T03:13:37;2.30;;;1.80;;
13411;SDS011;67102;51.666;6.880;2023-02-28T03:16:32;3.03;;;1.83;;
13411;SDS011;67102;51.666;6.880;2023-02-28T03:22:19;1.97;;;1.80;;
13411;SDS011;67102;51.666;6.880;2023-02-28T03:25:15;1.97;;;1.80;;
13411;SDS011;67102;51.666;6.880;2023-02-28T03:27:48;2.23;;;1.90;;
13411;SDS011;67102;51.666;6.880;2023-02-28T03:30:28;2.37;;;2.17;;
13411;SDS011;67102;51.666;6.880;2023-02-28T03:33:03;2.97;;;2.00;;
13411;SDS011;67102;51.666;6.880;2023-02-28T03:35:36;2.63;;;2.10;;
13411;SDS011;67102;51.666;6.880;2023-02-28T03:38:09;1.97;;;1.83;;
13411;SDS011;67102;51.666;6.880;2023-02-28T03:40:41;2.60;;;1.73;;
13411;SDS011;67102;51.666;6.880;2023-02-28T03:43:14;2.07;;;1.87;;
13411;SDS011;67102;51.666;6.880;2023-02-28T03:45:45;1.80;;;1.70;;
13411;SDS011;67102;51.666;6.880;2023-02-28T03:48:15;2.90;;;2.17;;
13411;SDS011;67102;51.666;6.880;2023-02-28T03:50:46;2.37;;;1.93;;
13411;SDS011;67102;51.666;6.880;2023-02-28T03:53:18;3.47;;;2.30;;
13411;SDS011;67102;51.666;6.880;2023-02-28T03:55:53;3.50;;;2.20;;
13411;SDS011;67102;51.666;6.880;2023-02-28T03:58:25;2.17;;;1.80;;
13411;SDS011;67102;51.666;6.880;2023-02-28T04:00:56;2.40;;;2.10;;
13411;SDS011;67102;51.666;6.880;2023-02-28T04:03:29;3.30;;;2.23;;
13411;SDS011;67102;51.666;6.880;2023-02-28T04:05:55;2.40;;;2.10;;
13411;SDS011;67102;51.666;6.880;2023-02-28T04:08:24;3.63;;;2.10;;
13411;SDS011;67102;51.666;6.880;2023-02-28T04:11:00;1.60;;;1.50;;
13411;SDS011;67102;51.666;6.880;2023-02-28T04:13:30;2.20;;;1.90;;
13411;SDS011;67102;51.666;6.880;2023-02-28T04:15:56;2.70;;;2.17;;
13411;SDS011;67102;51.666;6.880;2023-02-28T04:18:21;4.43;;;2.70;;
13411;SDS011;67102;51.666;6.880;2023-02-28T04:20:48;2.57;;;2.37;;
13411;SDS011;67102;51.666;6.880;2023-02-28T04:23:14;2.43;;;2.20;;
13411;SDS011;67102;51.666;6.880;2023-02-28T04:25:41;3.23;;;1.90;;
13411;SDS011;67102;51.666;6.880;2023-02-28T04:28:07;3.33;;;1.80;;
13411;SDS011;67102;51.666;6.880;2023-02-28T04:30:33;1.90;;;1.80;;
13411;SDS011;67102;51.666;6.880;2023-02-28T04:32:59;2.20;;;2.00;;
13411;SDS011;67102;51.666;6.880;2023-02-28T04:35:25;1.63;;;1.53;;
13411;SDS011;67102;51.666;6.880;2023-02-28T04:37:53;3.20;;;1.87;;
13411;SDS011;67102;51.666;6.880;2023-02-28T04:40:18;2.93;;;2.23;;
13411;SDS011;67102;51.666;6.880;2023-02-28T04:42:46;2.33;;;1.73;;
13411;SDS011;67102;51.666;6.880;2023-02-28T04:45:12;2.93;;;1.90;;
13411;SDS011;67102;51.666;6.880;2023-02-28T04:47:38;2.10;;;1.90;;
13411;SDS011;67102;51.666;6.880;2023-02-28T04:50:04;2.40;;;2.00;;
13411;SDS011;67102;51.666;6.880;2023-02-28T04:52:31;3.13;;;1.90;;
13411;SDS011;67102;51.666;6.880;2023-02-28T04:54:56;2.50;;;1.80;;
13411;SDS011;67102;51.666;6.880;2023-02-28T04:57:22;1.80;;;1.70;;
13411;SDS011;67102;51.666;6.880;2023-02-28T04:59:50;2.07;;;1.97;;
13411;SDS011;67102;51.666;6.880;2023-02-28T05:02:16;2.10;;;1.90;;
13411;SDS011;67102;51.666;6.880;2023-02-28T05:04:42;2.23;;;1.80;;
13411;SDS011;67102;51.666;6.880;2023-02-28T05:07:07;2.83;;;2.10;;
13411;SDS011;67102;51.666;6.880;2023-02-28T05:09:33;4.67;;;2.20;;
13411;SDS011;67102;51.666;6.880;2023-02-28T05:11:59;2.17;;;1.97;;
13411;SDS011;67102;51.666;6.880;2023-02-28T05:14:25;2.20;;;2.00;;
13411;SDS011;67102;51.666;6.880;2023-02-28T05:16:53;2.83;;;2.23;;
13411;SDS011;67102;51.666;6.880;2023-02-28T05:19:19;2.60;;;2.20;;
13411;SDS011;67102;51.666;6.880;2023-02-28T05:21:49;2.13;;;1.70;;
13411;SDS011;67102;51.666;6.880;2023-02-28T05:24:17;2.70;;;2.20;;
13411;SDS011;67102;51.666;6.880;2023-02-28T05:26:43;4.00;;;2.33;;
13411;SDS011;67102;51.666;6.880;2023-02-28T05:29:09;2.80;;;2.23;;
13411;SDS011;67102;51.666;6.880;2023-02-28T05:31:35;2.60;;;2.10;;
13411;SDS011;67102;51.666;6.880;2023-02-28T05:34:03;3.27;;;2.17;;
13411;SDS011;67102;51.666;6.880;2023-02-28T05:36:29;2.80;;;1.90;;
13411;SDS011;67102;51.666;6.880;2023-02-28T05:38:55;2.67;;;2.03;;
13411;SDS011;67102;51.666;6.880;2023-02-28T05:41:21;2.17;;;1.97;;
13411;SDS011;67102;51.666;6.880;2023-02-28T05:43:47;1.90;;;1.80;;
13411;SDS011;67102;51.666;6.880;2023-02-28T05:46:13;2.17;;;1.97;;
13411;SDS011;67102;51.666;6.880;2023-02-28T05:48:40;2.67;;;1.80;;
13411;SDS011;67102;51.666;6.880;2023-02-28T05:51:08;2.33;;;2.00;;
13411;SDS011;67102;51.666;6.880;2023-02-28T05:53:34;3.10;;;2.23;;
13411;SDS011;67102;51.666;6.880;2023-02-28T05:56:01;2.00;;;1.73;;
13411;SDS011;67102;51.666;6.880;2023-02-28T05:58:27;3.00;;;1.77;;
13411;SDS011;67102;51.666;6.880;2023-02-28T06:00:53;4.03;;;2.03;;
13411;SDS011;67102;51.666;6.880;2023-02-28T06:03:20;2.37;;;1.90;;
13411;SDS011;67102;51.666;6.880;2023-02-28T06:05:45;1.97;;;1.87;;
13411;SDS011;67102;51.666;6.880;2023-02-28T06:08:13;2.53;;;1.80;;
13411;SDS011;67102;51.666;6.880;2023-02-28T06:10:39;1.80;;;1.70;;
13411;SDS011;67102;51.666;6.880;2023-02-28T06:13:05;2.17;;;1.97;;
13411;SDS011;67102;51.666;6.880;2023-02-28T06:15:31;2.97;;;2.10;;
13411;SDS011;67102;51.666;6.880;2023-02-28T06:17:57;2.80;;;2.20;;
13411;SDS011;67102;51.666;6.880;2023-02-28T06:20:24;3.23;;;1.97;;
13411;SDS011;67102;51.666;6.880;2023-02-28T06:22:51;3.00;;;2.00;;
13411;SDS011;67102;51.666;6.880;2023-02-28T06:25:19;2.17;;;2.07;;
13411;SDS011;67102;51.666;6.880;2023-02-28T06:27:45;2.67;;;1.90;;
13411;SDS011;67102;51.666;6.880;2023-02-28T06:30:11;3.17;;;2.10;;
13411;SDS011;67102;51.666;6.880;2023-02-28T06:32:38;2.63;;;2.00;;
13411;SDS011;67102;51.666;6.880;2023-02-28T06:35:04;2.60;;;2.20;;
13411;SDS011;67102;51.666;6.880;2023-02-28T06:37:30;2.90;;;2.23;;
13411;SDS011;67102;51.666;6.880;2023-02-28T06:39:56;2.23;;;2.00;;
13411;SDS011;67102;51.666;6.880;2023-02-28T06:42:24;1.93;;;1.80;;
13411;SDS011;67102;51.666;6.880;2023-02-28T06:44:50;2.00;;;1.90;;
13411;SDS011;67102;51.666;6.880;2023-02-28T06:47:16;2.10;;;1.80;;
13411;SDS011;67102;51.666;6.880;2023-02-28T06:49:42;2.63;;;1.90;;
13411;SDS011;67102;51.666;6.880;2023-02-28T06:52:08;2.37;;;2.10;;
13411;SDS011;67102;51.666;6.880;2023-02-28T06:54:33;2.43;;;2.10;;
13411;SDS011;67102;51.666;6.880;2023-02-28T06:57:01;2.97;;;2.10;;
13411;SDS011;67102;51.666;6.880;2023-02-28T06:59:29;2.20;;;2.00;;
13411;SDS011;67102;51.666;6.880;2023-02-28T07:01:55;2.43;;;2.23;;
13411;SDS011;67102;51.666;6.880;2023-02-28T07:04:21;2.90;;;2.50;;
13411;SDS011;67102;51.666;6.880;2023-02-28T07:06:47;3.37;;;2.57;;
13411;SDS011;67102;51.666;6.880;2023-02-28T07:09:13;2.90;;;2.33;;
13411;SDS011;67102;51.666;6.880;2023-02-28T07:11:39;2.73;;;2.53;;
13411;SDS011;67102;51.666;6.880;2023-02-28T07:14:06;3.10;;;2.23;;
13411;SDS011;67102;51.666;6.880;2023-02-28T07:16:33;2.80;;;2.50;;
13411;SDS011;67102;51.666;6.880;2023-02-28T07:18:59;2.30;;;1.90;;
13411;SDS011;67102;51.666;6.880;2023-02-28T07:21:25;2.50;;;2.17;;
13411;SDS011;67102;51.666;6.880;2023-02-28T07:23:51;2.33;;;2.13;;
13411;SDS011;67102;51.666;6.880;2023-02-28T07:26:18;2.93;;;2.20;;
13411;SDS011;67102;51.666;6.880;2023-02-28T07:28:45;4.50;;;2.50;;
13411;SDS011;67102;51.666;6.880;2023-02-28T07:31:13;4.27;;;2.20;;
13411;SDS011;67102;51.666;6.880;2023-02-28T07:33:42;2.60;;;2.40;;
13411;SDS011;67102;51.666;6.880;2023-02-28T07:36:09;2.53;;;2.30;;
13411;SDS011;67102;51.666;6.880;2023-02-28T07:38:37;2.70;;;2.23;;
13411;SDS011;67102;51.666;6.880;2023-02-28T07:41:03;3.27;;;2.00;;
13411;SDS011;67102;51.666;6.880;2023-02-28T07:43:29;2.43;;;2.20;;
13411;SDS011;67102;51.666;6.880;2023-02-28T07:45:55;2.70;;;2.10;;
13411;SDS011;67102;51.666;6.880;2023-02-28T07:48:21;2.63;;;2.40;;
13411;SDS011;67102;51.666;6.880;2023-02-28T07:50:54;2.50;;;2.30;;
13411;SDS011;67102;51.666;6.880;2023-02-28T07:53:20;3.60;;;2.70;;
13411;SDS011;67102;51.666;6.880;2023-02-28T07:55:46;2.70;;;2.50;;
13411;SDS011;67102;51.666;6.880;2023-02-28T07:58:12;3.27;;;2.57;;
13411;SDS011;67102;51.666;6.880;2023-02-28T08:00:38;2.67;;;2.30;;
13411;SDS011;67102;51.666;6.880;2023-02-28T08:03:04;3.07;;;2.50;;
13411;SDS011;67102;51.666;6.880;2023-02-28T08:05:30;2.60;;;2.27;;
13411;SDS011;67102;51.666;6.880;2023-02-28T08:07:57;2.30;;;2.03;;
13411;SDS011;67102;51.666;6.880;2023-02-28T08:10:23;2.83;;;2.40;;
13411;SDS011;67102;51.666;6.880;2023-02-28T08:12:49;2.70;;;2.50;;
13411;SDS011;67102;51.666;6.880;2023-02-28T08:15:15;2.60;;;2.40;;
13411;SDS011;67102;51.666;6.880;2023-02-28T08:17:41;6.40;;;2.47;;
13411;SDS011;67102;51.666;6.880;2023-02-28T08:20:07;2.57;;;2.37;;
13411;SDS011;67102;51.666;6.880;2023-02-28T08:22:34;2.90;;;2.27;;
13411;SDS011;67102;51.666;6.880;2023-02-28T08:25:02;3.00;;;2.30;;
13411;SDS011;67102;51.666;6.880;2023-02-28T08:27:29;2.60;;;2.40;;
13411;SDS011;67102;51.666;6.880;2023-02-28T08:29:55;2.33;;;2.10;;
13411;SDS011;67102;51.666;6.880;2023-02-28T08:32:20;3.10;;;2.00;;
13411;SDS011;67102;51.666;6.880;2023-02-28T08:34:46;2.43;;;2.23;;
13411;SDS011;67102;51.666;6.880;2023-02-28T08:37:12;3.10;;;2.17;;
13411;SDS011;67102;51.666;6.880;2023-02-28T08:39:38;2.13;;;2.00;;
13411;SDS011;67102;51.666;6.880;2023-02-28T08:42:06;2.33;;;2.10;;
13411;SDS011;67102;51.666;6.880;2023-02-28T08:44:32;2.30;;;2.10;;
13411;SDS011;67102;51.666;6.880;2023-02-28T08:46:58;2.40;;;2.20;;
13411;SDS011;67102;51.666;6.880;2023-02-28T08:49:24;2.97;;;2.40;;
13411;SDS011;67102;51.666;6.880;2023-02-28T08:51:50;3.47;;;2.43;;
13411;SDS011;67102;51.666;6.880;2023-02-28T08:54:16;2.27;;;2.07;;
13411;SDS011;67102;51.666;6.880;2023-02-28T08:56:42;2.50;;;2.17;;
13411;SDS011;67102;51.666;6.880;2023-02-28T08:59:10;2.20;;;2.00;;
13411;SDS011;67102;51.666;6.880;2023-02-28T09:01:36;2.10;;;2.00;;
13411;SDS011;67102;51.666;6.880;2023-02-28T09:04:02;2.93;;;2.07;;
13411;SDS011;67102;51.666;6.880;2023-02-28T09:06:28;2.20;;;2.00;;
13411;SDS011;67102;51.666;6.880;2023-02-28T09:08:55;1.80;;;1.70;;
13411;SDS011;67102;51.666;6.880;2023-02-28T09:11:21;1.90;;;1.80;;
13411;SDS011;67102;51.666;6.880;2023-02-28T09:13:47;2.20;;;2.00;;
13411;SDS011;67102;51.666;6.880;2023-02-28T09:16:15;2.00;;;1.90;;
13411;SDS011;67102;51.666;6.880;2023-02-28T09:18:42;2.60;;;2.03;;
13411;SDS011;67102;51.666;6.880;2023-02-28T09:21:10;1.93;;;1.80;;
13411;SDS011;67102;51.666;6.880;2023-02-28T09:23:38;2.03;;;1.73;;
13411;SDS011;67102;51.666;6.880;2023-02-28T09:26:05;1.70;;;1.60;;
13411;SDS011;67102;51.666;6.880;2023-02-28T09:28:32;2.20;;;1.80;;
13411;SDS011;67102;51.666;6.880;2023-02-28T09:30:58;2.00;;;1.60;;
13411;SDS011;67102;51.666;6.880;2023-02-28T09:33:25;1.73;;;1.40;;
13411;SDS011;67102;51.666;6.880;2023-02-28T09:35:57;1.80;;;1.50;;
13411;SDS011;67102;51.666;6.880;2023-02-28T09:38:25;1.37;;;1.23;;
13411;SDS011;67102;51.666;6.880;2023-02-28T09:40:52;1.47;;;1.37;;
13411;SDS011;67102;51.666;6.880;2023-02-28T09:43:21;1.87;;;1.77;;
13411;SDS011;67102;51.666;6.880;2023-02-28T09:45:56;2.90;;;1.50;;
13411;SDS011;67102;51.666;6.880;2023-02-28T09:48:28;1.33;;;1.23;;
13411;SDS011;67102;51.666;6.880;2023-02-28T09:51:01;1.93;;;1.60;;
13411;SDS011;67102;51.666;6.880;2023-02-28T09:53:30;1.77;;;1.67;;
13411;SDS011;67102;51.666;6.880;2023-02-28T09:55:58;1.57;;;1.47;;
13411;SDS011;67102;51.666;6.880;2023-02-28T09:58:29;1.53;;;1.43;;
13411;SDS011;67102;51.666;6.880;2023-02-28T10:01:05;1.50;;;1.40;;
13411;SDS011;67102;51.666;6.880;2023-02-28T10:03:40;1.60;;;1.50;;
13411;SDS011;67102;51.666;6.880;2023-02-28T10:06:13;1.63;;;1.53;;
13411;SDS011;67102;51.666;6.880;2023-02-28T10:08:45;1.40;;;1.30;;
13411;SDS011;67102;51.666;6.880;2023-02-28T10:11:18;4.67;;;1.60;;
13411;SDS011;67102;51.666;6.880;2023-02-28T10:13:48;1.83;;;1.70;;
13411;SDS011;67102;51.666;6.880;2023-02-28T10:16:20;1.53;;;1.43;;
13411;SDS011;67102;51.666;6.880;2023-02-28T10:18:53;1.70;;;1.60;;
13411;SDS011;67102;51.666;6.880;2023-02-28T10:21:26;1.97;;;1.77;;
13411;SDS011;67102;51.666;6.880;2023-02-28T10:24:01;1.70;;;1.60;;
13411;SDS011;67102;51.666;6.880;2023-02-28T10:26:48;2.30;;;1.80;;
13411;SDS011;67102;51.666;6.880;2023-02-28T10:29:17;1.70;;;1.60;;
13411;SDS011;67102;51.666;6.880;2023-02-28T10:31:43;2.17;;;1.70;;
13411;SDS011;67102;51.666;6.880;2023-02-28T10:34:12;1.80;;;1.60;;
13411;SDS011;67102;51.666;6.880;2023-02-28T10:36:38;3.17;;;1.50;;
13411;SDS011;67102;51.666;6.880;2023-02-28T10:42:18;1.80;;;1.70;;
13411;SDS011;67102;51.666;6.880;2023-02-28T10:44:47;2.30;;;1.50;;
13411;SDS011;67102;51.666;6.880;2023-02-28T10:47:14;1.60;;;1.50;;
13411;SDS011;67102;51.666;6.880;2023-02-28T10:49:48;1.60;;;1.50;;
13411;SDS011;67102;51.666;6.880;2023-02-28T10:52:16;1.70;;;1.60;;
13411;SDS011;67102;51.666;6.880;2023-02-28T10:55:14;1.53;;;1.43;;
13411;SDS011;67102;51.666;6.880;2023-02-28T10:57:45;2.77;;;1.67;;
13411;SDS011;67102;51.666;6.880;2023-02-28T11:00:13;1.90;;;1.80;;
13411;SDS011;67102;51.666;6.880;2023-02-28T11:02:42;1.47;;;1.37;;
13411;SDS011;67102;51.666;6.880;2023-02-28T11:05:29;1.70;;;1.60;;
13411;SDS011;67102;51.666;6.880;2023-02-28T11:07:59;1.53;;;1.43;;
13411;SDS011;67102;51.666;6.880;2023-02-28T11:10:31;2.07;;;1.47;;
13411;SDS011;67102;51.666;6.880;2023-02-28T11:12:58;1.67;;;1.57;;
13411;SDS011;67102;51.666;6.880;2023-02-28T11:15:24;2.37;;;1.60;;
13411;SDS011;67102;51.666;6.880;2023-02-28T11:17:53;1.90;;;1.73;;
13411;SDS011;67102;51.666;6.880;2023-02-28T11:20:20;1.50;;;1.40;;
13411;SDS011;67102;51.666;6.880;2023-02-28T11:22:51;2.20;;;1.60;;
13411;SDS011;67102;51.666;6.880;2023-02-28T11:25:21;2.20;;;1.90;;
13411;SDS011;67102;51.666;6.880;2023-02-28T11:27:50;1.63;;;1.53;;
13411;SDS011;67102;51.666;6.880;2023-02-28T11:30:34;2.30;;;1.80;;
13411;SDS011;67102;51.666;6.880;2023-02-28T11:33:17;2.23;;;2.03;;
13411;SDS011;67102;51.666;6.880;2023-02-28T11:35:49;2.23;;;2.03;;
13411;SDS011;67102;51.666;6.880;2023-02-28T11:38:18;6.07;;;1.80;;
13411;SDS011;67102;51.666;6.880;2023-02-28T11:40:46;2.33;;;1.93;;
13411;SDS011;67102;51.666;6.880;2023-02-28T11:43:30;2.20;;;1.90;;
13411;SDS011;67102;51.666;6.880;2023-02-28T11:46:20;1.80;;;1.70;;
13411;SDS011;67102;51.666;6.880;2023-02-28T11:48:58;3.07;;;2.20;;
13411;SDS011;67102;51.666;6.880;2023-02-28T11:51:40;2.07;;;1.87;;
13411;SDS011;67102;51.666;6.880;2023-02-28T11:57:32;1.70;;;1.57;;
13411;SDS011;67102;51.666;6.880;2023-02-28T12:00:15;2.30;;;1.67;;
13411;SDS011;67102;51.666;6.880;2023-02-28T12:03:03;1.90;;;1.80;;
13411;SDS011;67102;51.666;6.880;2023-02-28T12:05:49;3.57;;;1.93;;
13411;SDS011;67102;51.666;6.880;2023-02-28T12:08:27;2.23;;;1.90;;
13411;SDS011;67102;51.666;6.880;2023-02-28T12:11:14;1.97;;;1.80;;
13411;SDS011;67102;51.666;6.880;2023-02-28T12:13:54;1.83;;;1.73;;
13411;SDS011;67102;51.666;6.880;2023-02-28T12:16:45;2.03;;;1.73;;
13411;SDS011;67102;51.666;6.880;2023-02-28T12:19:24;2.43;;;1.90;;
13411;SDS011;67102;51.666;6.880;2023-02-28T12:22:02;1.90;;;1.80;;
13411;SDS011;67102;51.666;6.880;2023-02-28T12:24:45;2.20;;;2.00;;
13411;SDS011;67102;51.666;6.880;2023-02-28T12:27:34;2.20;;;2.00;;
13411;SDS011;67102;51.666;6.880;2023-02-28T12:30:05;2.20;;;1.80;;
13411;SDS011;67102;51.666;6.880;2023-02-28T12:32:40;1.97;;;1.87;;
13411;SDS011;67102;51.666;6.880;2023-02-28T12:35:11;1.97;;;1.77;;
13411;SDS011;67102;51.666;6.880;2023-02-28T12:37:42;2.70;;;2.17;;
13411;SDS011;67102;51.666;6.880;2023-02-28T12:40:15;2.20;;;2.00;;
13411;SDS011;67102;51.666;6.880;2023-02-28T12:42:48;2.30;;;2.10;;
13411;SDS011;67102;51.666;6.880;2023-02-28T12:45:18;2.37;;;2.17;;
13411;SDS011;67102;51.666;6.880;2023-02-28T12:47:48;1.90;;;1.80;;
13411;SDS011;67102;51.666;6.880;2023-02-28T12:50:21;2.23;;;2.03;;
13411;SDS011;67102;51.666;6.880;2023-02-28T12:52:51;3.30;;;2.27;;
13411;SDS011;67102;51.666;6.880;2023-02-28T12:55:27;2.33;;;2.13;;
13411;SDS011;67102;51.666;6.880;2023-02-28T12:58:06;2.13;;;2.00;;
13411;SDS011;67102;51.666;6.880;2023-02-28T13:00:43;2.30;;;2.10;;
13411;SDS011;67102;51.666;6.880;2023-02-28T13:03:32;2.30;;;1.97;;
13411;SDS011;67102;51.666;6.880;2023-02-28T13:06:17;1.70;;;1.60;;
13411;SDS011;67102;51.666;6.880;2023-02-28T13:09:05;2.50;;;2.10;;
13411;SDS011;67102;51.666;6.880;2023-02-28T13:11:38;3.13;;;2.40;;
13411;SDS011;67102;51.666;6.880;2023-02-28T13:14:18;3.30;;;2.10;;
13411;SDS011;67102;51.666;6.880;2023-02-28T13:16:57;2.00;;;1.80;;
13411;SDS011;67102;51.666;6.880;2023-02-28T13:19:27;2.47;;;2.10;;
13411;SDS011;67102;51.666;6.880;2023-02-28T13:21:56;2.27;;;2.00;;
13411;SDS011;67102;51.666;6.880;2023-02-28T13:24:36;2.07;;;1.97;;
13411;SDS011;67102;51.666;6.880;2023-02-28T13:27:20;2.00;;;1.83;;
13411;SDS011;67102;51.666;6.880;2023-02-28T13:29:59;2.30;;;2.07;;
13411;SDS011;67102;51.666;6.880;2023-02-28T13:44:07;2.20;;;1.87;;
13411;SDS011;67102;51.666;6.880;2023-02-28T13:46:37;1.80;;;1.70;;
13411;SDS011;67102;51.666;6.880;2023-02-28T13:49:53;2.37;;;2.00;;
13411;SDS011;67102;51.666;6.880;2023-02-28T13:52:20;2.70;;;2.20;;
13411;SDS011;67102;51.666;6.880;2023-02-28T13:55:06;2.07;;;1.87;;
13411;SDS011;67102;51.666;6.880;2023-02-28T13:57:55;2.33;;;1.83;;
13411;SDS011;67102;51.666;6.880;2023-02-28T14:00:37;3.37;;;2.00;;
13411;SDS011;67102;51.666;6.880;2023-02-28T14:03:26;3.37;;;2.17;;
13411;SDS011;67102;51.666;6.880;2023-02-28T14:06:16;2.20;;;2.00;;
13411;SDS011;67102;51.666;6.880;2023-02-28T14:08:52;3.33;;;2.10;;
13411;SDS011;67102;51.666;6.880;2023-02-28T14:11:27;1.90;;;1.80;;
13411;SDS011;67102;51.666;6.880;2023-02-28T14:13:56;1.97;;;1.80;;
13411;SDS011;67102;51.666;6.880;2023-02-28T14:16:24;2.20;;;2.00;;
13411;SDS011;67102;51.666;6.880;2023-02-28T14:18:55;2.00;;;1.90;;
13411;SDS011;67102;51.666;6.880;2023-02-28T14:21:24;2.67;;;2.07;;
13411;SDS011;67102;51.666;6.880;2023-02-28T14:27:24;2.47;;;1.80;;
13411;SDS011;67102;51.666;6.880;2023-02-28T14:30:07;2.60;;;2.00;;
13411;SDS011;67102;51.666;6.880;2023-02-28T14:33:01;2.33;;;2.00;;
13411;SDS011;67102;51.666;6.880;2023-02-28T14:35:46;3.27;;;2.20;;
13411;SDS011;67102;51.666;6.880;2023-02-28T14:38:27;2.73;;;2.10;;
13411;SDS011;67102;51.666;6.880;2023-02-28T14:40:57;2.27;;;2.13;;
13411;SDS011;67102;51.666;6.880;2023-02-28T14:43:27;1.97;;;1.87;;
13411;SDS011;67102;51.666;6.880;2023-02-28T14:45:54;4.47;;;2.13;;
13411;SDS011;67102;51.666;6.880;2023-02-28T14:48:23;2.40;;;2.20;;
13411;SDS011;67102;51.666;6.880;2023-02-28T14:50:52;1.90;;;1.80;;
13411;SDS011;67102;51.666;6.880;2023-02-28T14:53:22;2.50;;;2.07;;
13411;SDS011;67102;51.666;6.880;2023-02-28T14:55:51;2.23;;;1.90;;
13411;SDS011;67102;51.666;6.880;2023-02-28T14:58:21;3.40;;;2.40;;
13411;SDS011;67102;51.666;6.880;2023-02-28T15:00:50;2.17;;;2.03;;
13411;SDS011;67102;51.666;6.880;2023-02-28T15:03:19;2.93;;;2.03;;
13411;SDS011;67102;51.666;6.880;2023-02-28T15:05:52;2.10;;;2.00;;
13411;SDS011;67102;51.666;6.880;2023-02-28T15:08:21;2.13;;;1.90;;
13411;SDS011;67102;51.666;6.880;2023-02-28T15:10:52;2.03;;;1.93;;
13411;SDS011;67102;51.666;6.880;2023-02-28T15:13:20;1.90;;;1.80;;
13411;SDS011;67102;51.666;6.880;2023-02-28T15:15:49;5.33;;;2.23;;
13411;SDS011;67102;51.666;6.880;2023-02-28T15:18:22;3.17;;;2.50;;
13411;SDS011;67102;51.666;6.880;2023-02-28T15:20:55;2.40;;;2.20;;
13411;SDS011;67102;51.666;6.880;2023-02-28T15:23:27;2.17;;;1.90;;
13411;SDS011;67102;51.666;6.880;2023-02-28T15:25:54;4.57;;;2.20;;
13411;SDS011;67102;51.666;6.880;2023-02-28T15:28:20;2.80;;;2.10;;
13411;SDS011;67102;51.666;6.880;2023-02-28T15:30:55;3.23;;;1.97;;
13411;SDS011;67102;51.666;6.880;2023-02-28T15:33:25;2.53;;;2.10;;
13411;SDS011;67102;51.666;6.880;2023-02-28T15:36:04;2.47;;;2.27;;